createdAt,value
2019-02-20T00:03:35.010Z,16.37
2019-02-20T00:08:39.779Z,17.77
2019-02-20T00:13:44.623Z,16.20
2019-02-20T00:18:48.889Z,14.80
2019-02-20T00:23:53.002Z,14.30
2019-02-20T00:28:57.141Z,12.73
2019-02-20T00:34:01.252Z,14.97
2019-02-20T00:39:07.808Z,15.80
2019-02-20T00:44:34.389Z,17.70
2019-02-20T00:49:42.209Z,16.40
2019-02-20T00:54:46.335Z,17.67
2019-02-20T00:59:50.925Z,19.50
2019-02-20T01:04:55.662Z,13.20
2019-02-20T01:09:59.975Z,18.37
2019-02-20T01:15:04.887Z,15.93
2019-02-20T01:20:09.875Z,18.47
2019-02-20T01:25:15.402Z,17.97
2019-02-20T01:30:20.170Z,11.87
2019-02-20T01:35:24.357Z,15.53
2019-02-20T01:40:28.404Z,12.07
2019-02-20T01:45:33.285Z,13.40
2019-02-20T01:50:37.414Z,17.47
2019-02-20T01:55:42.111Z,12.73
2019-02-20T02:00:48.426Z,11.80
2019-02-20T02:05:52.536Z,13.80
2019-02-20T02:10:56.609Z,16.03
2019-02-20T02:16:01.289Z,14.27
2019-02-20T02:21:06.071Z,15.73
2019-02-20T02:26:11.103Z,26.53
2019-02-20T02:31:15.360Z,15.00
2019-02-20T02:36:19.398Z,13.70
2019-02-20T02:41:23.604Z,19.13
2019-02-20T02:46:27.724Z,10.83
2019-02-20T02:51:32.441Z,13.90
2019-02-20T02:56:36.801Z,10.13
2019-02-20T03:01:40.994Z,16.73
2019-02-20T03:06:52.624Z,12.53
2019-02-20T03:11:57.298Z,11.97
2019-02-20T03:17:01.565Z,19.90
2019-02-20T03:22:05.645Z,11.73
2019-02-20T03:27:09.876Z,14.93
2019-02-20T03:32:14.658Z,11.03
2019-02-20T03:37:18.932Z,13.27
2019-02-20T03:42:23.273Z,16.63
2019-02-20T03:47:27.435Z,19.77
2019-02-20T03:52:31.626Z,15.33
2019-02-20T03:57:35.944Z,14.67
2019-02-20T04:02:40.272Z,14.10
2019-02-20T04:07:44.920Z,11.73
2019-02-20T04:12:49.154Z,16.90
2019-02-20T04:17:53.205Z,15.50
2019-02-20T04:22:57.314Z,16.57
2019-02-20T04:28:02.020Z,17.43
2019-02-20T04:33:06.130Z,15.53
2019-02-20T04:38:10.360Z,16.10
2019-02-20T04:43:14.472Z,23.53
2019-02-20T04:48:18.493Z,16.67
2019-02-20T04:53:22.682Z,24.67
2019-02-20T04:58:27.668Z,20.33
2019-02-20T05:03:32.378Z,21.43
2019-02-20T05:08:37.138Z,22.30
2019-02-20T05:13:41.912Z,22.60
2019-02-20T05:18:45.972Z,27.53
2019-02-20T05:23:50.684Z,17.13
2019-02-20T05:28:54.979Z,24.60
2019-02-20T05:33:59.063Z,26.50
2019-02-20T05:39:04.799Z,25.13
2019-02-20T05:44:11.790Z,16.67
2019-02-20T05:49:16.059Z,22.93
2019-02-20T05:54:20.802Z,18.77
2019-02-20T05:59:25.022Z,21.83
2019-02-20T06:04:29.685Z,24.33
2019-02-20T06:09:33.836Z,21.03
2019-02-20T06:14:42.582Z,24.17
2019-02-20T06:19:47.125Z,17.10
2019-02-20T06:24:51.286Z,17.70
2019-02-20T06:29:58.640Z,19.63
2019-02-20T06:35:03.190Z,20.90
2019-02-20T06:40:07.774Z,21.33
2019-02-20T06:45:12.541Z,26.73
2019-02-20T06:50:16.797Z,21.63
2019-02-20T06:55:20.858Z,16.43
2019-02-20T07:00:26.279Z,25.60
2019-02-20T07:05:31.241Z,20.83
2019-02-20T07:11:00.301Z,18.70
2019-02-20T07:16:23.642Z,19.37
2019-02-20T07:22:04.628Z,19.63
2019-02-20T07:27:26.316Z,23.13
2019-02-20T07:32:30.993Z,22.67
2019-02-20T07:37:35.095Z,19.43
2019-02-20T07:42:39.179Z,20.63
2019-02-20T07:47:43.828Z,17.63
2019-02-20T07:52:48.233Z,19.53
2019-02-20T07:57:54.886Z,22.30
2019-02-20T08:02:59.729Z,18.90
2019-02-20T08:08:04.069Z,15.40
2019-02-20T08:13:09.526Z,20.63
2019-02-20T08:18:13.809Z,22.63
2019-02-20T08:23:17.951Z,22.20
2019-02-20T08:28:22.837Z,26.93
2019-02-20T08:33:29.352Z,22.63
2019-02-20T08:38:33.584Z,25.00
2019-02-20T08:43:37.710Z,24.70
2019-02-20T08:48:44.673Z,23.90
2019-02-20T08:53:52.283Z,27.97
2019-02-20T08:58:56.299Z,23.23
2019-02-20T09:04:00.383Z,24.03
2019-02-20T09:09:06.309Z,22.27
2019-02-20T09:14:10.485Z,18.97
2019-02-20T09:19:14.689Z,22.57
2019-02-20T09:24:19.419Z,26.77
2019-02-20T09:29:24.218Z,17.60
2019-02-20T09:34:29.103Z,22.53
2019-02-20T09:39:35.709Z,21.17
2019-02-20T09:44:43.728Z,24.90
2019-02-20T09:49:48.662Z,18.43
2019-02-20T09:54:55.740Z,27.10
2019-02-20T10:00:00.000Z,22.93
2019-02-20T10:05:04.836Z,28.53
2019-02-20T10:10:09.906Z,20.57
2019-02-20T10:15:15.076Z,23.27
2019-02-20T10:20:19.992Z,23.63
2019-02-20T10:25:25.043Z,30.17
2019-02-20T10:30:29.972Z,31.57
2019-02-20T10:35:34.815Z,25.47
2019-02-20T10:40:39.549Z,30.93
2019-02-20T10:45:45.756Z,27.63
2019-02-20T10:50:50.528Z,26.83
2019-02-20T10:55:55.365Z,31.40
2019-02-20T11:01:00.207Z,28.33
2019-02-20T11:06:05.211Z,39.67
2019-02-20T11:11:10.095Z,28.67
2019-02-20T11:16:14.967Z,31.00
2019-02-20T11:21:20.019Z,34.67
2019-02-20T11:26:25.244Z,33.93
2019-02-20T11:31:30.102Z,30.47
2019-02-20T11:36:34.932Z,20.30
2019-02-20T11:41:40.807Z,26.57
2019-02-20T11:46:45.509Z,21.37
2019-02-20T11:51:50.344Z,18.27
2019-02-20T11:56:55.291Z,17.40
2019-02-20T12:02:00.179Z,15.80
2019-02-20T12:07:05.047Z,17.07
2019-02-20T12:12:09.855Z,14.57
2019-02-20T12:17:14.802Z,15.80
2019-02-20T12:22:19.489Z,17.43
2019-02-20T12:27:24.392Z,17.43
2019-02-20T12:32:30.898Z,15.40
2019-02-20T12:37:35.786Z,21.20
2019-02-20T12:42:41.942Z,10.97
2019-02-20T12:47:47.097Z,14.03
2019-02-20T12:52:51.967Z,14.77
2019-02-20T12:57:56.803Z,11.73
2019-02-20T13:03:01.592Z,12.17
2019-02-20T13:08:06.441Z,12.60
2019-02-20T13:13:11.182Z,8.47
2019-02-20T13:18:19.156Z,17.73
2019-02-20T13:23:24.037Z,13.70
2019-02-20T13:28:29.105Z,17.50
2019-02-20T13:33:34.050Z,14.23
2019-02-20T13:38:40.213Z,12.00
2019-02-20T13:48:49.565Z,11.43
2019-02-20T13:53:54.519Z,15.10
2019-02-20T13:58:59.435Z,10.80
2019-02-20T14:04:04.425Z,10.40
2019-02-20T14:09:09.774Z,7.63
2019-02-20T14:14:14.554Z,9.13
2019-02-20T14:19:19.445Z,6.33
2019-02-20T14:24:24.383Z,8.97
2019-02-20T14:29:29.316Z,7.37
2019-02-20T14:34:34.158Z,9.17
2019-02-20T14:39:39.034Z,8.77
2019-02-20T14:44:43.873Z,7.87
2019-02-20T14:49:49.060Z,10.43
2019-02-20T14:54:54.000Z,11.90
2019-02-20T14:59:59.016Z,9.93
2019-02-20T15:05:05.294Z,8.97
2019-02-20T15:10:10.664Z,7.50
2019-02-20T15:15:15.651Z,13.60
2019-02-20T15:20:20.754Z,14.77
2019-02-20T15:25:25.674Z,12.47
2019-02-20T15:30:30.065Z,13.50
2019-02-20T15:35:35.058Z,15.73
2019-02-20T15:40:40.112Z,14.23
2019-02-20T15:45:45.002Z,10.40
2019-02-20T15:50:49.445Z,13.23
2019-02-20T15:55:54.302Z,12.50
2019-02-20T16:00:59.316Z,10.37
2019-02-20T16:06:04.285Z,8.57
2019-02-20T16:11:09.203Z,9.63
2019-02-20T16:16:14.390Z,13.87
2019-02-20T16:21:19.396Z,9.67
2019-02-20T16:26:25.270Z,7.63
2019-02-20T16:31:30.707Z,9.70
2019-02-20T16:36:35.005Z,15.90
2019-02-20T16:41:39.225Z,8.40
2019-02-20T16:46:43.539Z,10.30
2019-02-20T16:51:48.235Z,9.47
2019-02-20T16:56:52.997Z,10.87
2019-02-20T17:01:57.853Z,10.00
2019-02-20T17:07:02.699Z,10.67
2019-02-20T17:12:08.606Z,10.83
2019-02-20T17:17:13.610Z,6.70
2019-02-20T17:22:18.430Z,11.93
2019-02-20T17:27:23.642Z,6.33
2019-02-20T17:32:28.579Z,10.00
2019-02-20T17:37:33.424Z,16.87
2019-02-20T17:42:38.264Z,12.13
2019-02-20T17:47:43.426Z,6.17
2019-02-20T17:52:48.333Z,10.70
2019-02-20T17:57:54.963Z,11.63
2019-02-20T18:02:59.961Z,6.83
2019-02-20T18:08:04.998Z,6.93
2019-02-20T18:13:10.096Z,5.60
2019-02-20T18:18:14.956Z,9.20
2019-02-20T18:23:21.843Z,14.27
2019-02-20T18:28:26.569Z,16.30
2019-02-20T18:33:31.517Z,11.27
2019-02-20T18:38:35.990Z,11.27
2019-02-20T18:43:49.786Z,13.73
2019-02-20T18:48:54.568Z,17.27
2019-02-20T18:53:58.813Z,15.90
2019-02-20T18:59:02.975Z,17.27
2019-02-20T19:04:08.093Z,20.73
2019-02-20T19:09:14.418Z,18.17
2019-02-20T19:14:37.753Z,17.60
2019-02-20T19:19:48.082Z,16.87
2019-02-20T19:25:08.122Z,21.70
2019-02-20T19:31:02.720Z,16.50
2019-02-20T19:36:20.132Z,13.20
2019-02-20T19:41:46.539Z,22.50
2019-02-20T19:47:07.406Z,21.60
2019-02-20T19:52:19.247Z,12.87
2019-02-20T19:57:41.203Z,17.73
2019-02-20T20:02:58.298Z,17.43
2019-02-20T20:08:10.511Z,16.27
2019-02-20T20:13:40.790Z,16.77
2019-02-20T20:19:04.288Z,16.77
2019-02-20T20:24:45.843Z,15.37
2019-02-20T20:30:09.297Z,16.33
2019-02-20T20:35:38.813Z,17.10
2019-02-20T20:40:54.564Z,11.87
2019-02-20T20:46:25.510Z,11.13
2019-02-20T20:51:40.676Z,15.23
2019-02-20T20:57:06.652Z,22.10
2019-02-20T21:02:15.700Z,17.57
2019-02-20T21:07:37.823Z,18.40
2019-02-20T21:13:02.004Z,19.20
2019-02-20T21:18:14.408Z,16.20
2019-02-20T21:24:01.650Z,17.13
2019-02-20T21:29:08.869Z,17.33
2019-02-20T21:34:25.025Z,15.93
2019-02-20T21:39:55.921Z,17.37
2019-02-20T21:45:39.321Z,17.00
2019-02-20T21:51:31.476Z,16.93
2019-02-20T21:57:14.742Z,13.23
2019-02-20T22:02:45.493Z,18.43
2019-02-20T22:08:19.104Z,20.63
2019-02-20T22:13:48.795Z,17.20
2019-02-20T22:19:10.775Z,20.93
2019-02-20T22:24:23.851Z,15.73
2019-02-20T22:30:02.782Z,17.60
2019-02-20T23:45:38.634Z,25.53
2019-02-20T23:50:43.238Z,26.20
2019-02-20T23:55:47.909Z,21.43
